Time;durP1;ratioP1;P1;durP2;ratioP2;P2;SDS_P1;SDS_P2;PMS_P1;PMS_P2;Temp;Humidity;BMP_temperature;BMP_pressure;BME280_temperature;BME280_humidity;BME280_pressure;Samples;Min_cycle;Max_cycle;Signal;HPM_P1;HPM_P2
2022/01/07 00:00:55;;;;;;;18.37;10.43;;;;;;;0.07;78.67;98874.56;4123428;28;20241;-56
2022/01/07 00:02:57;;;;;;;12.63;10.40;;;;;;;0.09;78.65;98877.06;4104269;28;20249;-56
2022/01/07 00:05:04;;;;;;;16.27;10.60;;;;;;;0.06;78.78;98875.56;4108199;28;20994;-56
2022/01/07 00:07:05;;;;;;;13.33;9.77;;;;;;;0.05;78.71;98873.03;4122399;28;20321;-56
2022/01/07 00:09:07;;;;;;;21.10;11.80;;;;;;;0.05;78.72;98873.91;4122721;28;20312;-58
2022/01/07 00:11:09;;;;;;;13.93;11.17;;;;;;;0.10;78.65;98870.69;4091047;28;20212;-58
2022/01/07 00:13:12;;;;;;;17.33;10.27;;;;;;;0.08;78.60;98873.53;4104711;28;20526;-57
2022/01/07 00:15:16;;;;;;;14.07;10.40;;;;;;;0.13;78.44;98868.47;4123166;28;20631;-56
2022/01/07 00:17:18;;;;;;;14.70;9.93;;;;;;;0.06;78.75;98875.56;4122665;28;20436;-56
2022/01/07 00:19:19;;;;;;;15.80;10.43;;;;;;;0.06;78.82;98880.94;4090643;28;20227;-58
2022/01/07 00:21:22;;;;;;;15.70;11.33;;;;;;;0.08;78.78;98878.91;4105675;28;20202;-58
2022/01/07 00:23:23;;;;;;;13.43;9.97;;;;;;;0.12;78.85;98871.34;4109390;28;20230;-56
2022/01/07 00:25:25;;;;;;;13.67;9.40;;;;;;;0.02;78.88;98874.22;4120783;28;20238;-58
2022/01/07 00:27:27;;;;;;;18.03;10.20;;;;;;;0.07;78.55;98876.41;4125265;28;20209;-57
2022/01/07 00:29:28;;;;;;;10.37;9.37;;;;;;;0.09;78.68;98867.13;4106629;28;20598;-58
2022/01/07 00:31:30;;;;;;;15.23;9.70;;;;;;;0.06;78.45;98875.56;4105086;28;20247;-60
2022/01/07 00:33:32;;;;;;;10.47;8.77;;;;;;;0.08;78.76;98860.09;4123251;28;20574;-59
2022/01/07 00:35:34;;;;;;;10.13;8.23;;;;;;;0.15;78.34;98858.38;4121594;28;20736;-58
2022/01/07 00:37:36;;;;;;;12.07;9.97;;;;;;;0.26;78.37;98855.28;4109874;28;20215;-57
2022/01/07 00:39:39;;;;;;;13.53;8.90;;;;;;;0.18;77.92;98859.88;4108361;28;20289;-58
2022/01/07 00:41:41;;;;;;;15.47;9.07;;;;;;;0.16;77.83;98859.22;4109601;28;20322;-59
2022/01/07 00:43:43;;;;;;;11.77;9.13;;;;;;;0.17;77.89;98856.34;4095320;28;20207;-58
2022/01/07 00:45:47;;;;;;;10.23;9.10;;;;;;;0.17;77.39;98855.50;4096963;28;20207;-59
2022/01/07 00:47:50;;;;;;;11.03;8.80;;;;;;;0.18;77.60;98855.34;4109495;28;20253;-59
2022/01/07 00:49:52;;;;;;;14.07;9.20;;;;;;;0.19;77.70;98854.31;4123433;28;20230;-59
2022/01/07 00:51:54;;;;;;;12.40;9.33;;;;;;;0.18;77.51;98860.72;4109722;28;20219;-61
2022/01/07 00:53:56;;;;;;;11.03;9.17;;;;;;;0.19;77.43;98854.31;4123555;28;20210;-60
2022/01/07 00:55:57;;;;;;;16.23;9.63;;;;;;;0.18;77.30;98858.03;4123599;28;20672;-61
2022/01/07 00:57:59;;;;;;;11.05;10.07;;;;;;;0.18;77.04;98847.28;4093326;28;20247;-60
2022/01/07 01:00:01;;;;;;;13.07;9.83;;;;;;;0.15;76.96;98847.59;4093296;28;20228;-61
2022/01/07 01:02:04;;;;;;;14.70;10.07;;;;;;;0.15;77.00;98841.41;4095020;28;20207;-60
2022/01/07 01:04:15;;;;;;;11.97;10.20;;;;;;;0.13;77.09;98849.66;4123175;28;20218;-60
2022/01/07 01:06:17;;;;;;;20.13;10.07;;;;;;;0.16;77.07;98843.91;4110998;28;20221;-59
2022/01/07 01:08:19;;;;;;;11.70;9.80;;;;;;;0.17;76.67;98850.97;4125112;28;20217;-59
2022/01/07 01:10:24;;;;;;;11.17;10.07;;;;;;;0.16;77.15;98849.28;4110142;28;20540;-59
2022/01/07 01:12:25;;;;;;;17.17;9.70;;;;;;;0.24;76.77;98845.72;4110202;28;20214;-59
2022/01/07 01:14:29;;;;;;;11.90;8.97;;;;;;;0.24;76.83;98849.25;4094449;28;20235;-60
2022/01/07 01:16:31;;;;;;;12.82;9.73;;;;;;;0.26;76.62;98843.69;4127108;28;20206;-58
2022/01/07 01:18:33;;;;;;;12.02;10.05;;;;;;;0.21;76.55;98846.91;4092085;28;20749;-59
2022/01/07 01:20:35;;;;;;;10.57;9.37;;;;;;;0.19;76.50;98838.19;4123201;28;20649;-57
2022/01/07 01:22:37;;;;;;;11.10;8.53;;;;;;;0.21;76.69;98835.31;4110416;28;20207;-59
2022/01/07 01:24:38;;;;;;;11.50;8.47;;;;;;;0.18;76.96;98831.13;4089615;28;20212;-58
2022/01/07 01:26:40;;;;;;;9.73;9.00;;;;;;;0.19;76.79;98830.09;4111280;28;20218;-57
2022/01/07 01:28:42;;;;;;;8.48;7.53;;;;;;;0.16;76.79;98835.81;4125981;28;20800;-61
2022/01/07 01:30:44;;;;;;;10.10;9.20;;;;;;;0.24;76.84;98830.41;4109258;28;20715;-59
2022/01/07 01:32:48;;;;;;;11.95;10.05;;;;;;;0.24;76.79;98825.03;4091954;28;20243;-59
2022/01/07 01:34:50;;;;;;;12.43;9.70;;;;;;;0.18;77.14;98827.59;4095869;28;20315;-57
2022/01/07 01:36:51;;;;;;;11.32;9.77;;;;;;;0.20;77.25;98818.31;4107957;28;20206;-58
2022/01/07 01:38:53;;;;;;;22.10;10.60;;;;;;;0.17;77.74;98824.06;4102764;28;20270;-59
2022/01/07 01:40:55;;;;;;;11.43;10.23;;;;;;;0.23;77.59;98809.91;4108193;28;20625;-56
2022/01/07 01:42:57;;;;;;;10.53;9.57;;;;;;;0.31;77.40;98804.47;4094363;28;20239;-59
2022/01/07 01:44:59;;;;;;;12.87;10.23;;;;;;;0.33;76.94;98807.81;4122337;28;20214;-58
2022/01/07 01:47:02;;;;;;;17.10;10.23;;;;;;;0.35;77.21;98805.78;4121597;28;20225;-59
2022/01/07 01:49:05;;;;;;;13.30;9.33;;;;;;;0.42;76.99;98804.03;4121682;28;20264;-57
2022/01/07 01:51:06;;;;;;;9.47;8.40;;;;;;;0.21;77.38;98798.47;4126075;28;20974;-58
2022/01/07 01:53:08;;;;;;;13.50;10.47;;;;;;;0.24;77.15;98798.13;4094354;28;20236;-58
2022/01/07 01:55:10;;;;;;;20.63;9.80;;;;;;;0.24;77.63;98791.91;4109531;28;20683;-58
2022/01/07 01:57:13;;;;;;;13.87;9.70;;;;;;;0.26;77.42;98795.25;4108674;28;20210;-57
2022/01/07 01:59:23;;;;;;;17.37;10.97;;;;;;;0.34;77.32;98792.53;4104428;28;20297;-60
2022/01/07 02:01:25;;;;;;;17.80;10.73;;;;;;;0.31;77.44;98785.63;4119302;28;20229;-58
2022/01/07 02:03:27;;;;;;;11.10;8.93;;;;;;;0.34;76.99;98787.97;4104722;28;20486;-60
2022/01/07 02:05:29;;;;;;;10.10;9.07;;;;;;;0.22;77.43;98784.00;4094897;28;20788;-59
2022/01/07 02:07:35;;;;;;;21.90;8.63;;;;;;;0.25;77.24;98785.50;4112637;28;20241;-59
2022/01/07 02:09:37;;;;;;;18.00;9.73;;;;;;;0.26;77.12;98782.66;4124330;28;20266;-58
2022/01/07 02:11:40;;;;;;;16.40;11.77;;;;;;;0.30;77.10;98778.59;4122723;28;20701;-58
2022/01/07 02:13:41;;;;;;;20.47;12.00;;;;;;;0.22;77.73;98778.63;4110869;28;20239;-59
2022/01/07 02:15:44;;;;;;;26.10;12.60;;;;;;;0.28;77.43;98771.72;4108376;28;20709;-58
2022/01/07 02:17:49;;;;;;;16.10;11.90;;;;;;;0.32;77.41;98773.84;4094625;28;20278;-58
2022/01/07 02:19:52;;;;;;;22.70;11.70;;;;;;;0.33;77.42;98772.84;4093081;28;20255;-58
2022/01/07 02:21:53;;;;;;;12.57;10.73;;;;;;;0.32;77.54;98762.25;4109893;28;20203;-56
2022/01/07 02:23:55;;;;;;;14.80;10.00;;;;;;;0.47;77.20;98757.78;4104976;28;20210;-60
2022/01/07 02:25:57;;;;;;;12.00;10.17;;;;;;;0.42;77.21;98758.28;4091844;28;20207;-57
2022/01/07 02:27:58;;;;;;;12.53;10.33;;;;;;;0.42;77.22;98758.28;4104691;28;20314;-58
2022/01/07 02:30:00;;;;;;;19.43;9.53;;;;;;;0.51;77.09;98759.91;4110417;28;20266;-59
2022/01/07 02:32:02;;;;;;;12.10;9.33;;;;;;;0.50;77.11;98758.25;4125465;28;20213;-57
2022/01/07 02:34:04;;;;;;;9.63;8.80;;;;;;;0.47;77.20;98766.66;4111542;28;20213;-60
2022/01/07 02:36:07;;;;;;;12.20;8.20;;;;;;;0.41;76.98;98756.63;4107412;28;20231;-60
2022/01/07 02:38:09;;;;;;;16.03;10.37;;;;;;;0.40;77.25;98749.56;4093211;28;20208;-58
2022/01/07 02:40:11;;;;;;;13.67;9.27;;;;;;;0.54;76.95;98758.72;4105297;28;20582;-60
2022/01/07 02:42:13;;;;;;;12.97;9.57;;;;;;;0.49;76.83;98758.41;4119370;28;20284;-59
2022/01/07 02:44:15;;;;;;;14.50;8.10;;;;;;;0.45;76.84;98741.78;4107796;28;20238;-58
2022/01/07 02:46:16;;;;;;;9.30;7.73;;;;;;;0.56;76.66;98744.03;4106083;28;20223;-57
2022/01/07 02:48:18;;;;;;;11.60;8.30;;;;;;;0.52;76.81;98748.13;4106166;28;20207;-59
2022/01/07 02:50:40;;;;;;;13.03;8.67;;;;;;;0.45;76.92;98741.78;4092361;28;20251;-58
2022/01/07 02:52:42;;;;;;;11.93;9.00;;;;;;;0.51;76.60;98746.47;4125142;28;20225;-58
2022/01/07 02:54:43;;;;;;;9.20;8.40;;;;;;;0.51;76.56;98746.47;4127156;28;20656;-59
2022/01/07 02:56:45;;;;;;;9.93;8.13;;;;;;;0.55;76.68;98747.75;4107495;28;20237;-57
2022/01/07 02:58:47;;;;;;;19.13;8.17;;;;;;;0.54;76.61;98746.09;4108859;28;20234;-59
2022/01/07 03:00:48;;;;;;;8.43;7.63;;;;;;;0.57;76.62;98748.44;4121928;28;20202;-58
2022/01/07 03:02:51;;;;;;;13.83;8.70;;;;;;;0.60;76.36;98745.34;4110117;28;20775;-57
2022/01/07 03:04:53;;;;;;;9.87;7.73;;;;;;;0.63;76.36;98744.16;4123083;28;20214;-59
2022/01/07 03:06:55;;;;;;;10.60;9.20;;;;;;;0.62;76.50;98743.31;4123974;28;20719;-57
2022/01/07 03:08:57;;;;;;;11.77;7.67;;;;;;;0.66;76.29;98750.03;4124926;28;20238;-59
2022/01/07 03:10:58;;;;;;;9.70;7.67;;;;;;;0.68;76.08;98747.16;4108585;28;20341;-56
2022/01/07 03:13:02;;;;;;;14.97;8.33;;;;;;;0.58;76.22;98742.03;4124403;28;20237;-58
2022/01/07 03:15:05;;;;;;;12.30;7.47;;;;;;;0.60;76.17;98745.34;4091441;28;20231;-60
2022/01/07 03:17:06;;;;;;;12.63;8.23;;;;;;;0.58;76.44;98738.47;4122806;28;20225;-58
2022/01/07 03:19:08;;;;;;;9.17;8.37;;;;;;;0.53;76.42;98736.34;4092026;28;20235;-61
2022/01/07 03:21:10;;;;;;;10.33;8.83;;;;;;;0.51;76.75;98730.31;4091984;28;20208;-61
2022/01/07 03:23:12;;;;;;;17.73;9.37;;;;;;;0.50;76.78;98725.94;4090303;28;20599;-59
2022/01/07 03:25:15;;;;;;;11.63;8.77;;;;;;;0.59;76.30;98711.38;4107894;28;20762;-58
2022/01/07 03:27:17;;;;;;;11.83;7.77;;;;;;;0.61;76.43;98717.41;4095567;28;22046;-57
2022/01/07 03:29:18;;;;;;;9.43;8.57;;;;;;;0.60;76.73;98712.25;4091778;28;20234;-58
2022/01/07 03:31:20;;;;;;;17.03;8.93;;;;;;;0.61;76.73;98714.72;4104648;28;20215;-59
2022/01/07 03:33:22;;;;;;;11.33;7.90;;;;;;;0.64;76.51;98718.91;4091483;28;20219;-61
2022/01/07 03:35:24;;;;;;;8.90;6.60;;;;;;;0.61;76.54;98720.09;4107648;28;20210;-57
2022/01/07 03:37:26;;;;;;;13.27;10.33;;;;;;;0.61;76.50;98708.53;4105061;28;20234;-59
2022/01/07 03:39:27;;;;;;;10.07;7.83;;;;;;;0.62;76.56;98711.00;4105912;28;20231;-57
2022/01/07 03:41:29;;;;;;;15.97;7.23;;;;;;;0.69;76.21;98701.19;4092059;28;21738;-60
2022/01/07 03:43:31;;;;;;;8.60;7.80;;;;;;;0.68;76.56;98710.28;4091496;28;20215;-57
2022/01/07 03:45:33;;;;;;;9.57;8.53;;;;;;;0.76;76.13;98702.16;4108876;28;20211;-57
2022/01/07 03:47:34;;;;;;;8.50;7.70;;;;;;;0.77;76.00;98698.44;4125577;28;20218;-57
2022/01/07 03:49:36;;;;;;;9.47;6.53;;;;;;;0.71;76.15;98699.16;4105947;28;20340;-59
2022/01/07 03:51:38;;;;;;;10.60;9.13;;;;;;;0.77;75.98;98694.88;4108267;28;20211;-60
2022/01/07 03:53:40;;;;;;;12.67;7.30;;;;;;;0.69;76.24;98701.19;4107434;28;20207;-59
2022/01/07 03:55:43;;;;;;;9.60;7.03;;;;;;;0.75;76.22;98695.06;4108580;28;20625;-58
2022/01/07 03:57:45;;;;;;;8.77;7.97;;;;;;;0.76;76.07;98696.75;4122221;28;20206;-60
2022/01/07 03:59:50;;;;;;;7.40;6.40;;;;;;;0.73;75.93;98696.25;4091615;28;20247;-59
2022/01/07 04:01:52;;;;;;;10.30;7.37;;;;;;;0.75;76.27;98689.69;4122410;28;20735;-59
2022/01/07 04:03:53;;;;;;;17.23;6.40;;;;;;;0.77;76.11;98690.34;4109437;28;20273;-59
2022/01/07 04:05:55;;;;;;;10.23;8.20;;;;;;;0.67;76.45;98692.47;4109813;28;20302;-58
2022/01/07 04:07:57;;;;;;;14.93;7.37;;;;;;;0.71;76.25;98687.53;4123118;28;20218;-58
2022/01/07 04:09:59;;;;;;;10.30;8.63;;;;;;;0.68;76.71;98693.31;4093945;28;20346;-58
2022/01/07 04:12:01;;;;;;;8.13;7.07;;;;;;;0.74;76.46;98692.56;4125852;28;20281;-58
2022/01/07 04:14:03;;;;;;;11.93;7.23;;;;;;;0.78;76.04;98692.00;4111750;28;20239;-58
2022/01/07 04:16:05;;;;;;;8.63;8.00;;;;;;;0.74;76.59;98688.00;4126114;28;20547;-59
2022/01/07 04:18:07;;;;;;;8.80;8.00;;;;;;;0.83;75.94;98692.31;4110317;28;20273;-58
2022/01/07 04:20:11;;;;;;;14.97;7.40;;;;;;;0.86;76.24;98686.53;4092525;28;20295;-60
2022/01/07 04:22:13;;;;;;;9.37;6.50;;;;;;;0.90;76.00;98682.47;4107872;28;20234;-57
2022/01/07 04:24:14;;;;;;;9.43;7.57;;;;;;;0.86;75.67;98681.16;4126169;28;20587;-58
2022/01/07 04:26:16;;;;;;;10.83;7.67;;;;;;;0.83;76.26;98676.16;4109643;28;20242;-58
2022/01/07 04:28:19;;;;;;;15.67;8.30;;;;;;;0.86;76.18;98678.47;4109899;28;20215;-57
2022/01/07 04:30:22;;;;;;;11.00;7.10;;;;;;;0.92;75.75;98680.41;4109737;28;20230;-57
2022/01/07 04:32:23;;;;;;;8.90;6.97;;;;;;;0.89;75.85;98669.19;4110688;28;20199;-57
2022/01/07 04:34:25;;;;;;;14.07;8.30;;;;;;;0.86;75.98;98673.06;4109145;28;20289;-57
2022/01/07 04:36:27;;;;;;;12.40;8.37;;;;;;;0.86;76.02;98665.00;4125041;28;20210;-57
2022/01/07 04:38:29;;;;;;;9.63;6.40;;;;;;;0.94;75.46;98669.47;4104011;28;20231;-57
2022/01/07 04:40:32;;;;;;;10.77;6.67;;;;;;;0.94;75.81;98664.91;4125079;28;20281;-57
2022/01/07 04:42:33;;;;;;;11.53;6.80;;;;;;;1.04;75.13;98667.31;4097224;28;20280;-57
2022/01/07 04:44:40;;;;;;;12.90;7.20;;;;;;;0.97;75.50;98661.00;4110413;28;20213;-59
2022/01/07 04:46:41;;;;;;;13.17;7.27;;;;;;;1.06;75.42;98668.81;4108134;28;20560;-60
2022/01/07 04:48:43;;;;;;;7.87;7.07;;;;;;;1.02;75.11;98661.28;4108785;28;20700;-59
2022/01/07 04:50:45;;;;;;;9.87;6.70;;;;;;;0.99;75.29;98664.31;4110823;28;20243;-58
2022/01/07 04:52:47;;;;;;;7.17;6.37;;;;;;;0.99;75.26;98659.78;4110005;28;20233;-60
2022/01/07 04:54:49;;;;;;;11.03;6.33;;;;;;;1.04;75.25;98652.00;4127066;28;20326;-57
2022/01/07 04:56:50;;;;;;;12.37;7.13;;;;;;;1.03;74.83;98655.72;4107628;28;20217;-60
2022/01/07 04:58:52;;;;;;;11.87;5.97;;;;;;;1.02;75.09;98658.59;4124177;28;20308;-59
2022/01/07 05:00:54;;;;;;;11.10;6.53;;;;;;;1.02;75.09;98650.50;4090674;28;20207;-59
2022/01/07 05:02:55;;;;;;;12.27;6.70;;;;;;;1.06;75.41;98654.47;4108981;28;20246;-59
2022/01/07 05:04:57;;;;;;;6.87;5.87;;;;;;;1.05;75.25;98652.81;4109550;28;20208;-57
2022/01/07 05:06:59;;;;;;;8.43;6.07;;;;;;;1.01;75.60;98652.34;4110475;28;20202;-57
2022/01/07 05:09:01;;;;;;;8.10;6.50;;;;;;;1.05;75.43;98642.88;4110586;28;20234;-59
2022/01/07 05:11:02;;;;;;;8.00;7.03;;;;;;;1.15;74.72;98643.41;4108138;28;20825;-58
2022/01/07 05:13:04;;;;;;;13.60;6.63;;;;;;;1.12;74.87;98641.13;4110406;28;20218;-59
2022/01/07 05:15:06;;;;;;;8.47;5.77;;;;;;;1.13;74.13;98645.47;4111852;28;20660;-57
2022/01/07 05:17:08;;;;;;;8.00;6.63;;;;;;;1.09;74.46;98649.56;4107018;28;20219;-57
2022/01/07 05:19:10;;;;;;;6.90;6.27;;;;;;;1.08;74.53;98647.88;4127179;28;20234;-56
2022/01/07 05:21:11;;;;;;;8.53;6.47;;;;;;;1.13;74.54;98644.63;4126394;28;20252;-56
2022/01/07 05:23:13;;;;;;;7.70;6.10;;;;;;;1.15;74.46;98648.00;4106492;28;20215;-59
2022/01/07 05:25:16;;;;;;;12.43;7.07;;;;;;;1.14;74.53;98651.72;4107952;28;20618;-58
2022/01/07 05:27:18;;;;;;;7.27;6.17;;;;;;;1.14;74.59;98647.13;4121197;28;20210;-58
2022/01/07 05:29:20;;;;;;;9.63;6.20;;;;;;;1.18;73.86;98645.75;4107014;28;20238;-57
2022/01/07 05:31:23;;;;;;;8.53;6.17;;;;;;;1.14;74.07;98649.84;4103329;28;20218;-57
2022/01/07 05:33:24;;;;;;;9.57;5.40;;;;;;;1.09;74.87;98638.78;4124203;28;20253;-60
2022/01/07 05:35:29;;;;;;;9.23;6.27;;;;;;;1.18;74.21;98642.22;4109230;28;20693;-58
2022/01/07 05:37:31;;;;;;;13.77;5.17;;;;;;;1.18;74.35;98644.91;4107356;28;20253;-59
2022/01/07 05:39:32;;;;;;;8.47;6.00;;;;;;;1.22;73.78;98633.56;4104158;28;20304;-56
2022/01/07 05:41:35;;;;;;;15.83;6.37;;;;;;;1.23;74.00;98629.88;4123581;28;20228;-59
2022/01/07 05:43:36;;;;;;;6.87;5.03;;;;;;;1.19;74.09;98619.63;4122254;28;20206;-60
2022/01/07 05:45:38;;;;;;;4.87;4.37;;;;;;;1.23;73.43;98629.88;4103512;28;20226;-60
2022/01/07 05:47:40;;;;;;;6.27;5.40;;;;;;;1.23;74.19;98623.63;4107551;28;20215;-60
2022/01/07 05:49:42;;;;;;;7.50;5.13;;;;;;;1.24;73.51;98626.13;4103249;28;20764;-60
2022/01/07 05:51:43;;;;;;;6.90;5.53;;;;;;;1.24;73.53;98631.53;4122901;28;20352;-57
2022/01/07 05:53:45;;;;;;;6.73;5.13;;;;;;;1.21;73.52;98621.09;4106355;28;20233;-58
2022/01/07 05:55:47;;;;;;;7.03;5.60;;;;;;;1.20;73.85;98614.06;4090262;28;20286;-57
2022/01/07 05:57:48;;;;;;;9.33;5.33;;;;;;;1.19;73.70;98617.78;4109948;28;20278;-58
2022/01/07 05:59:50;;;;;;;6.20;5.70;;;;;;;1.21;73.80;98615.72;4108163;28;20603;-58
2022/01/07 06:01:52;;;;;;;6.80;6.20;;;;;;;1.25;73.61;98608.94;4110413;28;20199;-57
2022/01/07 06:03:54;;;;;;;5.30;4.70;;;;;;;1.26;73.39;98616.00;4104636;28;20221;-58
2022/01/07 06:05:56;;;;;;;7.83;5.90;;;;;;;1.27;73.49;98614.97;4125273;28;20313;-58
2022/01/07 06:07:58;;;;;;;10.30;5.60;;;;;;;1.27;73.24;98614.97;4105805;28;20289;-56
2022/01/07 06:10:00;;;;;;;9.73;6.17;;;;;;;1.27;73.26;98614.16;4120312;28;20312;-58
2022/01/07 06:12:05;;;;;;;5.97;5.23;;;;;;;1.28;73.35;98611.25;4105491;28;20253;-59
2022/01/07 06:14:07;;;;;;;7.50;5.30;;;;;;;1.28;73.48;98611.25;4108740;28;20629;-57
2022/01/07 06:16:08;;;;;;;6.80;6.10;;;;;;;1.22;73.47;98611.19;4106901;28;20214;-58
2022/01/07 06:18:13;;;;;;;8.97;5.70;;;;;;;1.25;73.63;98608.94;4119057;28;21344;-57
2022/01/07 06:20:15;;;;;;;7.93;5.43;;;;;;;1.26;73.56;98607.91;4106577;28;21933;-60
2022/01/07 06:22:17;;;;;;;6.07;5.57;;;;;;;1.26;73.49;98601.69;4125373;28;20203;-56
2022/01/07 06:24:19;;;;;;;15.30;7.80;;;;;;;1.26;73.67;98613.31;4107273;28;20221;-57
2022/01/07 06:26:21;;;;;;;6.83;5.83;;;;;;;1.26;73.42;98596.28;4092710;28;20204;-58
2022/01/07 06:28:24;;;;;;;9.27;6.90;;;;;;;1.23;74.05;98608.31;4104578;28;20720;-58
2022/01/07 06:30:26;;;;;;;7.97;6.53;;;;;;;1.26;73.63;98605.22;4124329;28;20360;-60
2022/01/07 06:32:28;;;;;;;6.27;5.67;;;;;;;1.33;73.40;98603.44;4107554;28;20207;-55
2022/01/07 06:34:30;;;;;;;7.13;5.27;;;;;;;1.26;73.52;98605.22;4109165;28;20210;-56
2022/01/07 06:36:31;;;;;;;7.07;6.43;;;;;;;1.26;73.65;98602.53;4127078;28;20206;-61
2022/01/07 06:38:33;;;;;;;10.57;6.00;;;;;;;1.23;73.27;98604.75;4126467;28;20607;-57
2022/01/07 06:40:35;;;;;;;6.30;5.80;;;;;;;1.26;73.25;98599.81;4124638;28;20206;-57
2022/01/07 06:42:37;;;;;;;7.87;7.20;;;;;;;1.31;73.36;98605.50;4123955;28;20228;-60
2022/01/07 06:44:39;;;;;;;6.10;5.53;;;;;;;1.28;73.31;98600.47;4106971;28;20268;-58
2022/01/07 06:46:41;;;;;;;6.13;5.03;;;;;;;1.26;73.35;98591.75;4109034;28;20213;-56
2022/01/07 06:48:43;;;;;;;8.83;5.93;;;;;;;1.25;73.37;98591.94;4108235;28;20235;-56
2022/01/07 06:50:46;;;;;;;6.40;5.67;;;;;;;1.28;72.99;98599.66;4106152;28;20314;-59
2022/01/07 06:52:51;;;;;;;5.77;5.17;;;;;;;1.29;73.17;98599.44;4110494;28;20230;-57
2022/01/07 06:54:52;;;;;;;7.20;5.67;;;;;;;1.33;73.51;98603.44;4091677;28;20278;-56
2022/01/07 06:56:54;;;;;;;24.27;6.43;;;;;;;1.38;73.26;98603.72;4110057;28;20744;-57
2022/01/07 06:58:56;;;;;;;6.30;4.63;;;;;;;1.37;72.74;98593.97;4126538;28;20254;-56
2022/01/07 07:00:58;;;;;;;6.90;6.30;;;;;;;1.30;73.52;98595.75;4105069;28;20238;-57
2022/01/07 07:03:00;;;;;;;6.23;5.37;;;;;;;1.33;73.53;98592.66;4108481;28;20305;-56
2022/01/07 07:05:02;;;;;;;5.87;5.17;;;;;;;1.33;73.65;98581.88;4093926;28;20215;-57
2022/01/07 07:07:03;;;;;;;9.83;5.47;;;;;;;1.34;73.77;98580.84;4121915;28;20210;-56
2022/01/07 07:09:06;;;;;;;5.00;4.70;;;;;;;1.30;73.68;98589.50;4091547;28;20262;-55
2022/01/07 07:11:07;;;;;;;8.33;4.80;;;;;;;1.30;73.51;98581.41;4105313;28;20246;-57
2022/01/07 07:13:09;;;;;;;11.90;6.03;;;;;;;1.32;73.56;98582.91;4122989;28;20213;-58
2022/01/07 07:15:11;;;;;;;9.20;6.03;;;;;;;1.33;73.60;98591.84;4108122;28;20245;-58
2022/01/07 07:17:14;;;;;;;5.93;5.53;;;;;;;1.25;74.08;98573.91;4105544;28;20198;-59
2022/01/07 07:19:16;;;;;;;11.47;5.53;;;;;;;1.28;74.55;98578.91;4107038;28;20654;-58
2022/01/07 07:21:18;;;;;;;8.83;5.47;;;;;;;1.25;74.75;98586.53;4122494;28;20515;-58
2022/01/07 07:23:19;;;;;;;5.17;4.77;;;;;;;1.28;74.46;98581.59;4092571;28;20286;-59
2022/01/07 07:25:23;;;;;;;5.50;4.73;;;;;;;1.27;74.43;98582.63;4103991;28;20207;-57
2022/01/07 07:27:25;;;;;;;5.03;4.63;;;;;;;1.23;74.82;98583.22;4106534;28;20211;-58
2022/01/07 07:29:26;;;;;;;6.27;5.67;;;;;;;1.27;74.56;98577.25;4087576;28;20788;-57
2022/01/07 07:31:30;;;;;;;6.87;5.70;;;;;;;1.20;75.06;98587.09;4104864;28;20696;-58
2022/01/07 07:33:55;;;;;;;7.63;5.73;;;;;;;1.27;74.55;98588.03;4122913;28;20297;-60
2022/01/07 07:38:16;;;;;;;10.17;6.17;;;;;;;1.20;75.36;98592.50;4125955;28;20706;-58
2022/01/07 07:40:18;;;;;;;6.60;5.73;;;;;;;1.21;75.04;98586.09;4112485;28;20206;-60
2022/01/07 07:42:20;;;;;;;8.93;4.80;;;;;;;1.28;75.46;98589.69;4129787;28;20217;-57
2022/01/07 07:44:22;;;;;;;7.00;5.43;;;;;;;1.23;75.29;98591.28;4112220;28;20261;-59
2022/01/07 07:46:30;;;;;;;9.40;4.53;;;;;;;1.27;75.35;98588.03;4109506;28;20202;-57
2022/01/07 07:48:33;;;;;;;6.13;5.10;;;;;;;1.28;75.09;98589.69;4131747;28;20237;-59
2022/01/07 07:50:35;;;;;;;8.50;5.05;;;;;;;1.24;75.73;98583.03;4111429;28;20662;-61
2022/01/07 07:52:36;;;;;;;5.57;5.07;;;;;;;1.28;75.54;98584.28;4111369;28;20458;-57
2022/01/07 07:54:39;;;;;;;15.90;5.87;;;;;;;1.24;75.48;98588.41;4127711;28;20285;-59
2022/01/07 07:56:40;;;;;;;7.00;5.40;;;;;;;1.27;75.75;98598.81;4110103;28;20253;-57
2022/01/07 07:58:43;;;;;;;6.77;4.83;;;;;;;1.23;75.70;98586.75;4113028;28;20238;-58
2022/01/07 08:00:46;;;;;;;5.15;4.57;;;;;;;1.27;75.93;98593.41;4114008;28;20234;-58
2022/01/07 08:02:48;;;;;;;7.32;4.95;;;;;;;1.25;75.93;98584.69;4131189;28;20202;-58
2022/01/07 08:04:52;;;;;;;6.33;5.80;;;;;;;1.17;76.22;98592.91;4110254;28;20531;-59
2022/01/07 08:06:54;;;;;;;6.47;5.87;;;;;;;1.15;76.50;98584.13;4112866;28;20239;-57
2022/01/07 08:08:56;;;;;;;10.40;6.07;;;;;;;1.17;76.72;98582.13;4097552;28;20713;-58
2022/01/07 08:11:01;;;;;;;9.93;6.17;;;;;;;1.10;77.08;98581.19;4110735;28;20230;-58
2022/01/07 08:17:29;;;;;;;6.73;6.10;;;;;;;1.07;77.84;98586.13;4124227;28;20947;-60
2022/01/07 08:19:31;;;;;;;6.40;5.57;;;;;;;1.08;77.79;98579.72;4111263;28;20233;-58
2022/01/07 08:21:33;;;;;;;10.67;6.40;;;;;;;1.02;78.01;98573.19;4123811;28;20206;-59
2022/01/07 08:23:37;;;;;;;7.70;6.33;;;;;;;1.04;77.94;98581.97;4108567;28;20219;-59
2022/01/07 08:25:42;;;;;;;6.87;6.27;;;;;;;1.01;77.93;98578.81;4108945;28;20219;-59
2022/01/07 08:27:43;;;;;;;7.27;6.53;;;;;;;1.01;77.81;98576.13;4094462;28;20652;-58
2022/01/07 08:29:45;;;;;;;8.97;5.83;;;;;;;1.08;77.60;98575.16;4109550;28;20284;-57
2022/01/07 08:36:15;;;;;;;8.73;5.03;;;;;;;1.03;78.06;98574.06;4132277;28;20221;-59
2022/01/07 08:38:20;;;;;;;6.37;5.87;;;;;;;1.10;78.01;98575.81;4112884;28;20633;-59
2022/01/07 08:40:21;;;;;;;9.60;5.90;;;;;;;1.17;77.63;98578.56;4096211;28;20595;-59
2022/01/07 08:42:25;;;;;;;6.87;6.37;;;;;;;1.15;78.24;98572.53;4095587;28;20211;-59
2022/01/07 08:44:26;;;;;;;10.07;5.47;;;;;;;1.10;78.34;98575.81;4128020;28;20233;-59
2022/01/07 08:46:28;;;;;;;8.07;6.80;;;;;;;1.08;78.43;98577.84;4110745;28;20242;-58
2022/01/07 08:48:31;;;;;;;7.07;6.47;;;;;;;1.07;78.32;98570.78;4107084;28;20737;-58
2022/01/07 08:50:32;;;;;;;6.50;5.87;;;;;;;1.06;78.12;98570.97;4129334;28;20257;-58
2022/01/07 08:52:34;;;;;;;6.87;6.13;;;;;;;1.11;78.15;98572.09;4107504;28;20270;-56
2022/01/07 08:54:36;;;;;;;6.97;6.23;;;;;;;1.17;78.07;98568.66;4129406;28;20214;-59
2022/01/07 08:56:38;;;;;;;9.57;6.27;;;;;;;1.14;78.53;98566.31;4112862;28;20214;-59
2022/01/07 08:58:40;;;;;;;20.37;10.37;;;;;;;1.20;77.79;98560.16;4112393;28;20226;-58
2022/01/07 09:00:42;;;;;;;7.93;7.03;;;;;;;1.19;77.81;98569.28;4112235;28;20604;-59
2022/01/07 09:02:45;;;;;;;7.10;6.40;;;;;;;1.20;77.94;98560.16;4113756;28;20207;-56
2022/01/07 09:04:47;;;;;;;7.63;5.73;;;;;;;1.18;77.73;98556.84;4112215;28;20242;-57
2022/01/07 09:06:49;;;;;;;5.77;4.73;;;;;;;1.20;77.85;98554.78;4110637;28;20213;-57
2022/01/07 09:08:51;;;;;;;6.17;5.57;;;;;;;1.22;77.52;98558.09;4096380;28;20231;-59
2022/01/07 09:10:52;;;;;;;6.17;5.67;;;;;;;1.27;77.60;98555.69;4129535;28;20296;-59
2022/01/07 09:12:54;;;;;;;8.77;5.87;;;;;;;1.25;77.47;98549.66;4110997;28;20223;-58
2022/01/07 09:14:56;;;;;;;7.97;5.27;;;;;;;1.21;77.24;98545.66;4127337;28;20206;-55
2022/01/07 09:16:58;;;;;;;6.20;5.60;;;;;;;1.32;77.23;98541.63;4110606;28;20222;-58
2022/01/07 09:19:01;;;;;;;5.87;5.27;;;;;;;1.32;77.68;98550.56;4109236;28;20238;-57
2022/01/07 09:21:03;;;;;;;5.43;5.03;;;;;;;1.37;77.21;98556.22;4112906;28;20210;-56
2022/01/07 09:23:05;;;;;;;7.00;6.30;;;;;;;1.39;77.29;98554.16;4109795;28;20199;-58
2022/01/07 09:25:07;;;;;;;6.87;5.33;;;;;;;1.34;77.16;98551.19;4092481;28;20662;-57
2022/01/07 09:27:12;;;;;;;6.90;4.97;;;;;;;1.39;77.45;98551.47;4107931;28;20210;-59
2022/01/07 09:29:14;;;;;;;5.70;5.20;;;;;;;1.43;77.44;98558.16;4109300;28;20610;-60
2022/01/07 09:31:17;;;;;;;6.13;5.03;;;;;;;1.44;77.12;98557.13;4125518;28;20702;-58
2022/01/07 09:33:22;;;;;;;7.20;5.03;;;;;;;1.50;77.09;98550.97;4111791;28;20199;-59
2022/01/07 09:35:44;;;;;;;6.25;5.60;;;;;;;1.45;77.14;98553.41;4126219;28;20244;-59
2022/01/07 09:37:47;;;;;;;9.30;5.15;;;;;;;1.44;76.87;98551.72;4110033;28;20199;-57
2022/01/07 09:39:52;;;;;;;5.23;4.83;;;;;;;1.39;77.25;98554.16;4111143;28;20229;-57
2022/01/07 09:41:53;;;;;;;6.10;5.50;;;;;;;1.50;77.09;98550.97;4129760;28;20667;-61
2022/01/07 09:43:55;;;;;;;6.37;5.77;;;;;;;1.50;77.08;98548.28;4126441;28;20213;-58
2022/01/07 09:45:57;;;;;;;5.72;5.22;;;;;;;1.47;77.04;98550.53;4109657;28;20231;-57
2022/01/07 09:48:01;;;;;;;4.65;4.20;;;;;;;1.62;76.78;98543.19;4093876;28;20211;-57
2022/01/07 09:50:03;;;;;;;5.60;5.10;;;;;;;1.68;76.94;98540.53;4107792;28;20222;-56